createdAt,value
2022-12-11T00:00:47.630Z,97039.19
2022-12-11T00:03:16.307Z,97038.16
2022-12-11T00:05:43.964Z,97038.22
2022-12-11T00:08:10.706Z,97034.53
2022-12-11T00:10:37.909Z,97037.56
2022-12-11T00:13:04.975Z,97039.19
2022-12-11T00:15:31.472Z,97032.38
2022-12-11T00:17:58.006Z,97032.38
2022-12-11T00:20:24.793Z,97033.75
2022-12-11T00:22:51.485Z,97030.72
2022-12-11T00:25:18.053Z,97031.00
2022-12-11T00:27:46.621Z,97029.63
2022-12-11T00:30:14.150Z,97030.72
2022-12-11T00:32:40.741Z,97039.41
2022-12-11T00:35:07.699Z,97032.00
2022-12-11T00:37:34.490Z,97035.84
2022-12-11T00:40:01.064Z,97049.47
2022-12-11T00:42:27.581Z,97054.91
2022-12-11T00:44:56.021Z,97051.13
2022-12-11T00:47:22.530Z,97046.47
2022-12-11T00:49:50.093Z,97041.31
2022-12-11T00:52:17.971Z,97059.03
2022-12-11T00:54:45.033Z,97066.13
2022-12-11T00:57:11.540Z,97059.56
2022-12-11T00:59:38.145Z,97063.41
2022-12-11T01:02:04.677Z,97065.28
2022-12-11T01:04:31.300Z,97062.81
2022-12-11T01:06:58.884Z,97066.63
2022-12-11T01:09:48.600Z,97067.97
2022-12-11T01:12:15.114Z,97068.50
2022-12-11T01:14:41.668Z,97065.78
2022-12-11T01:17:08.153Z,97069.94
2022-12-11T01:19:34.609Z,97070.97
2022-12-11T01:22:01.144Z,97067.97
2022-12-11T01:24:27.651Z,97068.22
2022-12-11T01:26:54.108Z,97076.44
2022-12-11T01:29:20.654Z,97070.97
2022-12-11T01:31:47.201Z,97087.56
2022-12-11T01:34:13.769Z,97068.84
2022-12-11T01:36:40.508Z,97086.81
2022-12-11T01:39:07.086Z,97092.53
2022-12-11T01:41:33.584Z,97098.19
2022-12-11T01:44:02.760Z,97103.88
2022-12-11T01:46:30.581Z,97100.91
2022-12-11T01:48:57.796Z,97102.59
2022-12-11T01:51:24.786Z,97108.00
2022-12-11T01:54:05.667Z,97107.19
2022-12-11T01:56:34.829Z,97103.38
2022-12-11T01:59:07.189Z,97106.41
2022-12-11T02:01:47.082Z,97112.16
2022-12-11T02:04:14.736Z,97113.03
2022-12-11T02:06:44.499Z,97121.25
2022-12-11T02:09:14.213Z,97130.31
2022-12-11T02:12:00.459Z,97131.72
2022-12-11T02:14:43.467Z,97133.66
2022-12-11T02:17:14.899Z,97129.84
2022-12-11T02:19:41.458Z,97122.00
2022-12-11T02:22:13.392Z,97115.47
2022-12-11T02:24:43.031Z,97119.00
2022-12-11T02:27:20.672Z,97123.13
2022-12-11T02:30:08.325Z,97117.97
2022-12-11T02:32:43.475Z,97123.44
2022-12-11T02:35:19.069Z,97130.22
2022-12-11T02:37:47.126Z,97140.31
2022-12-11T02:40:15.634Z,97130.53
2022-12-11T02:42:44.252Z,97126.72
2022-12-11T02:45:12.363Z,97121.28
2022-12-11T02:47:39.363Z,97119.41
2022-12-11T02:50:10.131Z,97123.22
2022-12-11T02:52:37.521Z,97113.44
2022-12-11T02:55:06.499Z,97118.59
2022-12-11T02:57:57.195Z,97130.56
2022-12-11T03:00:23.983Z,97127.56
2022-12-11T03:02:50.675Z,97127.31
2022-12-11T03:05:17.329Z,97131.91
2022-12-11T03:07:45.209Z,97141.44
2022-12-11T03:10:14.973Z,97128.38
2022-12-11T03:12:43.379Z,97128.94
2022-12-11T03:15:12.074Z,97124.88
2022-12-11T03:17:42.710Z,97120.53
2022-12-11T03:20:15.880Z,97126.22
2022-12-11T03:22:47.690Z,97133.53
2022-12-11T03:25:18.470Z,97140.88
2022-12-11T03:27:59.174Z,97150.66
2022-12-11T03:30:26.683Z,97156.31
2022-12-11T03:32:56.340Z,97142.47
2022-12-11T03:35:29.295Z,97148.97
2022-12-11T03:37:56.734Z,97158.50
2022-12-11T03:40:25.625Z,97159.81
2022-12-11T03:42:53.012Z,97163.63
2022-12-11T03:45:20.630Z,97157.66
2022-12-11T03:47:47.933Z,97152.50
2022-12-11T03:50:16.708Z,97164.72
2022-12-11T03:52:46.196Z,97157.94
2022-12-11T03:55:15.107Z,97157.66
2022-12-11T03:57:41.695Z,97163.34
2022-12-11T04:00:17.927Z,97160.63
2022-12-11T04:02:44.897Z,97167.72
2022-12-11T04:05:12.255Z,97178.00
2022-12-11T04:07:39.131Z,97172.03
2022-12-11T04:10:05.919Z,97175.56
2022-12-11T04:12:32.543Z,97168.50
2022-12-11T04:15:01.797Z,97160.91
2022-12-11T04:17:52.083Z,97162.53
2022-12-11T04:20:38.116Z,97159.53
2022-12-11T04:23:24.512Z,97154.66
2022-12-11T04:25:51.455Z,97163.09
2022-12-11T04:28:18.017Z,97165.53
2022-12-11T04:30:49.714Z,97173.13
2022-12-11T04:33:16.677Z,97168.75
2022-12-11T04:35:43.208Z,97179.59
2022-12-11T04:38:09.748Z,97170.66
2022-12-11T04:40:36.286Z,97175.25
2022-12-11T04:43:02.821Z,97160.88
2022-12-11T04:45:29.361Z,97172.00
2022-12-11T04:47:55.897Z,97173.09
2022-12-11T04:50:22.516Z,97173.09
2022-12-11T04:52:49.109Z,97166.03
2022-12-11T04:55:15.605Z,97165.78
2022-12-11T04:57:42.128Z,97169.03
2022-12-11T05:00:11.105Z,97173.91
2022-12-11T05:02:39.753Z,97164.97
2022-12-11T05:05:09.817Z,97173.09
2022-12-11T05:07:37.644Z,97161.66
2022-12-11T05:10:05.431Z,97176.06
2022-12-11T05:12:32.716Z,97172.53
2022-12-11T05:14:59.252Z,97182.56
2022-12-11T05:17:25.827Z,97188.00
2022-12-11T05:19:52.382Z,97178.22
2022-12-11T05:22:19.111Z,97170.34
2022-12-11T05:24:45.737Z,97166.84
2022-12-11T05:27:12.548Z,97183.09
2022-12-11T05:29:39.109Z,97185.00
2022-12-11T05:32:05.687Z,97175.25
2022-12-11T05:34:32.836Z,97180.66
2022-12-11T05:36:59.393Z,97169.78
2022-12-11T05:39:25.891Z,97176.88
2022-12-11T05:41:52.397Z,97182.84
2022-12-11T05:44:18.929Z,97181.44
2022-12-11T05:46:45.558Z,97182.53
2022-12-11T05:49:12.244Z,97188.22
2022-12-11T05:51:39.584Z,97193.16
2022-12-11T05:54:06.160Z,97178.19
2022-12-11T05:56:34.154Z,97182.00
2022-12-11T05:59:01.735Z,97186.34
2022-12-11T06:01:34.404Z,97192.03
2022-12-11T06:04:01.337Z,97195.81
2022-12-11T06:06:28.450Z,97202.06
2022-12-11T06:08:56.917Z,97198.53
2022-12-11T06:11:24.538Z,97202.59
2022-12-11T06:13:52.025Z,97209.13
2022-12-11T06:16:18.823Z,97209.94
2022-12-11T06:18:45.682Z,97206.13
2022-12-11T06:21:17.164Z,97201.53
2022-12-11T06:23:45.008Z,97218.06
2022-12-11T06:26:11.636Z,97208.34
2022-12-11T06:28:38.372Z,97205.09
2022-12-11T06:31:05.405Z,97216.19
2022-12-11T06:33:32.343Z,97211.09
2022-12-11T06:36:06.446Z,97215.69
2022-12-11T06:38:33.184Z,97215.16
2022-12-11T06:41:01.847Z,97215.72
2022-12-11T06:43:28.388Z,97224.41
2022-12-11T06:45:59.198Z,97225.75
2022-12-11T06:48:28.639Z,97224.41
2022-12-11T06:50:55.119Z,97220.59
2022-12-11T06:53:21.713Z,97217.09
2022-12-11T06:55:48.405Z,97231.22
2022-12-11T06:58:15.183Z,97233.38
2022-12-11T07:00:41.792Z,97241.25
2022-12-11T07:03:09.973Z,97243.47
2022-12-11T07:05:36.628Z,97252.97
2022-12-11T07:08:03.237Z,97256.25
2022-12-11T07:10:29.887Z,97254.88
2022-12-11T07:12:56.546Z,97258.97
2022-12-11T07:15:23.084Z,97256.53
2022-12-11T07:17:49.632Z,97256.25
2022-12-11T07:20:17.265Z,97256.00
2022-12-11T07:22:46.595Z,97254.66
2022-12-11T07:25:13.958Z,97262.25
2022-12-11T07:27:41.553Z,97263.63
2022-12-11T07:30:09.155Z,97269.59
2022-12-11T07:32:35.721Z,97265.78
2022-12-11T07:35:02.404Z,97259.84
2022-12-11T07:37:28.984Z,97267.72
2022-12-11T07:39:55.472Z,97273.69
2022-12-11T07:42:22.051Z,97278.56
2022-12-11T07:44:48.863Z,97274.75
2022-12-11T07:47:15.367Z,97284.56
2022-12-11T07:49:41.912Z,97284.56
2022-12-11T07:52:08.457Z,97281.31
2022-12-11T07:54:35.006Z,97285.38
2022-12-11T07:57:01.725Z,97287.28
2022-12-11T07:59:28.239Z,97282.91
2022-12-11T08:01:54.746Z,97288.09
2022-12-11T08:04:21.251Z,97301.41
2022-12-11T08:06:47.751Z,97303.59
2022-12-11T08:09:21.136Z,97313.91
2022-12-11T08:11:50.401Z,97311.19
2022-12-11T08:14:17.528Z,97318.25
2022-12-11T08:16:44.733Z,97320.72
2022-12-11T08:19:12.356Z,97331.31
2022-12-11T08:21:39.757Z,97324.25
2022-12-11T08:24:06.888Z,97329.13
2022-12-11T08:26:33.521Z,97324.50
2022-12-11T08:29:01.930Z,97321.53
2022-12-11T08:31:28.595Z,97320.16
2022-12-11T08:33:57.573Z,97325.34
2022-12-11T08:36:24.509Z,97327.53
2022-12-11T08:38:52.037Z,97332.66
2022-12-11T08:41:21.273Z,97344.34
2022-12-11T08:43:49.119Z,97342.19
2022-12-11T08:46:16.109Z,97343.56
2022-12-11T08:48:43.428Z,97351.69
2022-12-11T08:51:15.164Z,97342.19
2022-12-11T08:53:41.992Z,97337.84
2022-12-11T08:56:11.611Z,97341.66
2022-12-11T08:58:38.409Z,97346.53
2022-12-11T09:01:17.034Z,97340.28
2022-12-11T09:03:44.046Z,97342.47
2022-12-11T09:06:13.903Z,97347.63
2022-12-11T09:08:41.488Z,97340.84
2022-12-11T09:11:10.600Z,97354.97
2022-12-11T09:13:37.625Z,97349.81
2022-12-11T09:16:06.397Z,97345.19
2022-12-11T09:18:33.016Z,97336.78
2022-12-11T09:21:01.005Z,97341.13
2022-12-11T09:23:27.683Z,97348.19
2022-12-11T09:25:54.332Z,97359.59
2022-12-11T09:28:20.962Z,97348.72
2022-12-11T09:30:47.560Z,97350.63
2022-12-11T09:33:14.396Z,97348.44
2022-12-11T09:35:40.966Z,97345.72
2022-12-11T09:38:07.833Z,97348.44
2022-12-11T09:40:34.345Z,97350.88
2022-12-11T09:43:11.728Z,97340.00
2022-12-11T09:45:38.269Z,97350.59
2022-12-11T09:48:05.084Z,97351.69
2022-12-11T09:50:33.172Z,97357.16
2022-12-11T09:53:29.773Z,97359.53
2022-12-11T09:56:09.496Z,97352.75
2022-12-11T09:58:57.606Z,97348.16
2022-12-11T10:01:34.568Z,97336.75
2022-12-11T10:04:19.866Z,97333.75
2022-12-11T10:06:46.346Z,97335.13
2022-12-11T10:09:37.825Z,97328.59
2022-12-11T10:12:19.329Z,97322.34
2022-12-11T10:14:48.815Z,97335.94
2022-12-11T10:17:31.364Z,97335.13
2022-12-11T10:20:04.335Z,97318.00
2022-12-11T10:22:32.782Z,97330.78
2022-12-11T10:25:11.817Z,97326.97
2022-12-11T10:27:40.202Z,97326.63
2022-12-11T10:30:18.141Z,97324.75
2022-12-11T10:33:01.663Z,97328.84
2022-12-11T10:35:40.607Z,97309.03
2022-12-11T10:38:21.488Z,97316.63
2022-12-11T10:40:52.410Z,97318.25
2022-12-11T10:43:19.051Z,97326.66
2022-12-11T10:45:55.179Z,97333.19
2022-12-11T10:48:22.163Z,97329.38
2022-12-11T10:51:01.855Z,97332.38
2022-12-11T10:53:29.197Z,97332.38
2022-12-11T10:55:58.492Z,97330.47
2022-12-11T10:58:31.833Z,97338.03
2022-12-11T11:01:15.867Z,97349.47
2022-12-11T11:04:15.563Z,97344.84
2022-12-11T11:06:42.121Z,97339.44
2022-12-11T11:09:29.215Z,97337.25
2022-12-11T11:11:55.767Z,97332.91
2022-12-11T11:14:25.109Z,97324.75
2022-12-11T11:16:55.425Z,97322.84
2022-12-11T11:19:29.996Z,97329.38
2022-12-11T11:21:59.331Z,97336.44
2022-12-11T11:24:41.875Z,97332.91
2022-12-11T11:27:27.231Z,97342.13
2022-12-11T11:29:58.920Z,97340.25
2022-12-11T11:32:38.630Z,97342.13
2022-12-11T11:35:14.303Z,97344.03
2022-12-11T11:37:46.085Z,97345.94
2022-12-11T11:40:22.843Z,97348.66
2022-12-11T11:43:01.796Z,97339.69
2022-12-11T11:45:58.543Z,97341.59
2022-12-11T11:49:02.270Z,97347.84
2022-12-11T11:51:39.090Z,97338.88
2022-12-11T11:54:23.892Z,97346.22
2022-12-11T11:56:52.016Z,97335.34
2022-12-11T11:59:25.712Z,97335.34
2022-12-11T12:01:54.502Z,97337.25
2022-12-11T12:04:20.990Z,97337.25
2022-12-11T12:07:06.163Z,97334.81
2022-12-11T12:09:44.932Z,97336.72
2022-12-11T12:12:24.717Z,97339.44
2022-12-11T12:15:06.415Z,97329.66
2022-12-11T12:17:41.166Z,97324.22
2022-12-11T12:20:26.313Z,97328.84
2022-12-11T12:23:00.751Z,97325.31
2022-12-11T12:25:49.395Z,97328.03
2022-12-11T12:28:25.081Z,97333.69
2022-12-11T12:31:04.568Z,97329.94
2022-12-11T12:33:34.600Z,97323.66
2022-12-11T12:36:28.028Z,97326.38
2022-12-11T12:39:19.689Z,97325.56
2022-12-11T12:42:07.224Z,97321.22
2022-12-11T12:44:42.949Z,97325.81
2022-12-11T12:47:13.588Z,97322.28
2022-12-11T12:49:41.336Z,97332.34
2022-12-11T12:52:15.457Z,97335.06
2022-12-11T12:55:04.072Z,97321.75
2022-12-11T12:57:32.120Z,97335.06
2022-12-11T12:59:58.656Z,97326.91
2022-12-11T13:02:25.830Z,97329.91
2022-12-11T13:04:58.864Z,97320.66
2022-12-11T13:07:29.665Z,97319.28
2022-12-11T13:10:01.130Z,97324.97
2022-12-11T13:12:44.942Z,97320.63
2022-12-11T13:15:31.787Z,97326.06
2022-12-11T13:17:59.076Z,97321.72
2022-12-11T13:20:28.698Z,97325.53
2022-12-11T13:23:07.073Z,97328.13
2022-12-11T13:25:50.263Z,97334.56
2022-12-11T13:28:32.105Z,97336.22
2022-12-11T13:31:01.732Z,97339.25
2022-12-11T13:33:30.081Z,97336.03
2022-12-11T13:36:24.738Z,97348.25
2022-12-11T13:39:19.247Z,97346.88
2022-12-11T13:41:48.785Z,97348.25
2022-12-11T13:44:20.040Z,97349.88
2022-12-11T13:46:46.633Z,97353.44
2022-12-11T13:49:23.197Z,97353.97
2022-12-11T13:51:58.415Z,97363.19
2022-12-11T13:54:26.341Z,97362.13
2022-12-11T13:57:17.859Z,97359.41
2022-12-11T13:59:55.407Z,97365.66
2022-12-11T14:02:38.847Z,97362.13
2022-12-11T14:05:08.699Z,97369.72
2022-12-11T14:07:38.467Z,97365.66
2022-12-11T14:10:16.167Z,97368.63
2022-12-11T14:13:04.078Z,97373.78
2022-12-11T14:15:32.323Z,97368.34
2022-12-11T14:17:59.883Z,97368.63
2022-12-11T14:20:32.050Z,97366.47
2022-12-11T14:23:18.312Z,97373.78
2022-12-11T14:25:54.604Z,97383.56
2022-12-11T14:28:21.500Z,97380.31
2022-12-11T14:30:50.810Z,97385.16
2022-12-11T14:33:19.167Z,97385.94
2022-12-11T14:35:45.572Z,97391.94
2022-12-11T14:38:28.705Z,97393.03
2022-12-11T14:40:59.007Z,97390.31
2022-12-11T14:43:29.328Z,97399.50
2022-12-11T14:45:59.536Z,97395.75
2022-12-11T14:48:34.542Z,97386.50
2022-12-11T14:51:04.116Z,97395.97
2022-12-11T14:53:40.517Z,97400.34
2022-12-11T14:56:08.682Z,97404.13
2022-12-11T14:58:43.107Z,97395.97
2022-12-11T15:01:28.693Z,97391.31
2022-12-11T15:04:23.894Z,97402.75
2022-12-11T15:06:51.892Z,97406.03
2022-12-11T15:09:35.589Z,97412.53
2022-12-11T15:12:11.463Z,97414.16
2022-12-11T15:14:48.100Z,97409.81
2022-12-11T15:17:15.015Z,97415.50
2022-12-11T15:19:41.845Z,97419.59
2022-12-11T15:22:09.633Z,97417.13
2022-12-11T15:24:44.317Z,97417.97
2022-12-11T15:27:26.259Z,97421.75
2022-12-11T15:29:52.891Z,97425.28
2022-12-11T15:32:21.653Z,97423.66
2022-12-11T15:34:53.133Z,97433.69
2022-12-11T15:37:31.060Z,97430.44
2022-12-11T15:40:00.026Z,97443.75
2022-12-11T15:42:32.077Z,97444.56
2022-12-11T15:44:59.458Z,97444.00
2022-12-11T15:47:28.665Z,97445.09
2022-12-11T15:49:58.235Z,97444.78
2022-12-11T15:52:25.375Z,97448.06
2022-12-11T15:54:51.905Z,97441.78
2022-12-11T15:57:21.636Z,97436.91
2022-12-11T15:59:49.317Z,97443.13
2022-12-11T16:02:16.094Z,97438.81
2022-12-11T16:04:42.640Z,97444.50
2022-12-11T16:07:20.385Z,97442.03
2022-12-11T16:09:47.368Z,97448.03
2022-12-11T16:12:14.374Z,97441.78
2022-12-11T16:14:45.432Z,97444.22
2022-12-11T16:17:13.531Z,97446.66
2022-12-11T16:19:41.479Z,97453.16
2022-12-11T16:22:08.936Z,97453.16
2022-12-11T16:24:36.092Z,97448.00
2022-12-11T16:27:03.602Z,97451.53
2022-12-11T16:29:33.914Z,97451.53
2022-12-11T16:32:00.574Z,97448.81
2022-12-11T16:34:27.401Z,97448.81
2022-12-11T16:36:57.795Z,97446.38
2022-12-11T16:39:24.453Z,97453.44
2022-12-11T16:41:51.053Z,97445.28
2022-12-11T16:44:21.980Z,97455.34
2022-12-11T16:46:48.924Z,97456.16
2022-12-11T16:49:15.485Z,97463.47
2022-12-11T16:51:43.458Z,97468.91
2022-12-11T16:54:10.588Z,97459.94
2022-12-11T16:56:37.400Z,97468.09
2022-12-11T16:59:05.381Z,97456.91
2022-12-11T17:01:32.464Z,97457.47
2022-12-11T17:03:59.252Z,97470.22
2022-12-11T17:06:25.967Z,97475.66
2022-12-11T17:08:53.296Z,97469.41
2022-12-11T17:11:21.684Z,97469.41
2022-12-11T17:13:48.277Z,97468.84
2022-12-11T17:16:16.744Z,97475.09
2022-12-11T17:18:43.605Z,97482.41
2022-12-11T17:21:13.475Z,97477.00
2022-12-11T17:23:40.456Z,97483.22
2022-12-11T17:26:11.320Z,97497.34
2022-12-11T17:28:38.370Z,97485.94
2022-12-11T17:31:12.439Z,97492.19
2022-12-11T17:33:39.093Z,97503.59
2022-12-11T17:36:07.081Z,97495.72
2022-12-11T17:38:34.155Z,97495.97
2022-12-11T17:41:00.777Z,97507.91
2022-12-11T17:43:27.331Z,97502.50
2022-12-11T17:45:55.101Z,97509.00
2022-12-11T17:48:24.840Z,97506.28
2022-12-11T17:50:52.364Z,97500.84
2022-12-11T17:53:20.648Z,97506.56
2022-12-11T17:55:47.984Z,97507.63
2022-12-11T17:58:20.535Z,97513.06
2022-12-11T18:00:49.487Z,97509.53
2022-12-11T18:03:16.206Z,97513.88
2022-12-11T18:05:48.702Z,97519.56
2022-12-11T18:08:17.912Z,97522.28
2022-12-11T18:10:44.774Z,97528.75
2022-12-11T18:13:11.674Z,97532.28
2022-12-11T18:15:39.096Z,97536.06
2022-12-11T18:18:06.744Z,97530.91
2022-12-11T18:20:39.936Z,97539.06
2022-12-11T18:23:06.561Z,97540.94
2022-12-11T18:25:33.163Z,97535.50
2022-12-11T18:28:00.101Z,97542.59
2022-12-11T18:30:26.761Z,97539.06
2022-12-11T18:32:53.367Z,97547.19
2022-12-11T18:35:19.942Z,97549.09
2022-12-11T18:37:46.565Z,97549.09
2022-12-11T18:40:13.058Z,97555.34
2022-12-11T18:42:39.559Z,97558.03
2022-12-11T18:45:06.918Z,97556.41
2022-12-11T18:47:33.477Z,97563.47
2022-12-11T18:50:04.104Z,97565.09
2022-12-11T18:52:34.218Z,97568.63
2022-12-11T18:55:02.153Z,97580.31
2022-12-11T18:57:28.652Z,97580.88
2022-12-11T18:59:55.280Z,97580.63
2022-12-11T19:02:22.037Z,97589.06
2022-12-11T19:04:48.773Z,97590.22
2022-12-11T19:07:15.308Z,97589.44
2022-12-11T19:09:47.544Z,97602.59
2022-12-11T19:12:15.163Z,97600.66
2022-12-11T19:14:41.651Z,97609.38
2022-12-11T19:17:08.242Z,97611.31
2022-12-11T19:19:35.774Z,97611.63
2022-12-11T19:22:02.324Z,97616.03
2022-12-11T19:24:28.944Z,97617.38
2022-12-11T19:26:56.323Z,97620.44
2022-12-11T19:29:25.851Z,97623.16
2022-12-11T19:31:53.820Z,97620.50
2022-12-11T19:34:20.720Z,97629.47
2022-12-11T19:36:47.464Z,97622.97
2022-12-11T19:39:14.536Z,97613.25
2022-12-11T19:41:41.752Z,97620.03
2022-12-11T19:44:08.384Z,97617.34
2022-12-11T19:46:35.446Z,97613.31
2022-12-11T19:49:02.200Z,97610.31
2022-12-11T19:51:33.473Z,97614.66
2022-12-11T19:54:02.997Z,97615.22
2022-12-11T19:56:29.691Z,97611.16
2022-12-11T19:58:56.604Z,97615.00
2022-12-11T20:01:25.934Z,97617.19
2022-12-11T20:03:53.531Z,97614.19
2022-12-11T20:06:20.154Z,97612.84
2022-12-11T20:08:47.127Z,97622.38
2022-12-11T20:11:18.331Z,97623.22
2022-12-11T20:13:46.677Z,97625.09
2022-12-11T20:16:14.051Z,97623.44
2022-12-11T20:18:40.765Z,97626.44
2022-12-11T20:21:09.134Z,97632.72
2022-12-11T20:23:35.727Z,97633.53
2022-12-11T20:26:13.931Z,97631.09
2022-12-11T20:28:43.088Z,97635.19
2022-12-11T20:31:18.076Z,97623.75
2022-12-11T20:33:48.479Z,97632.19
2022-12-11T20:36:16.887Z,97636.84
2022-12-11T20:38:43.427Z,97629.25
2022-12-11T20:41:13.148Z,97632.59
2022-12-11T20:43:40.215Z,97627.69
2022-12-11T20:46:08.029Z,97633.13
2022-12-11T20:48:34.763Z,97630.97
2022-12-11T20:51:02.385Z,97637.22
2022-12-11T20:53:29.097Z,97643.50
2022-12-11T20:55:55.782Z,97643.50
2022-12-11T20:58:22.585Z,97651.59
2022-12-11T21:00:50.217Z,97653.72
2022-12-11T21:03:18.335Z,97660.03
2022-12-11T21:05:45.855Z,97667.13
2022-12-11T21:08:12.877Z,97665.25
2022-12-11T21:10:44.276Z,97659.25
2022-12-11T21:13:10.858Z,97659.03
2022-12-11T21:15:38.582Z,97668.03
2022-12-11T21:18:06.340Z,97674.06
2022-12-11T21:20:33.048Z,97664.28
2022-12-11T21:22:59.858Z,97659.97
2022-12-11T21:25:26.485Z,97668.69
2022-12-11T21:27:53.038Z,97675.53
2022-12-11T21:30:19.975Z,97671.47
2022-12-11T21:32:47.002Z,97662.25
2022-12-11T21:35:14.034Z,97665.22
2022-12-11T21:37:41.846Z,97674.28
2022-12-11T21:40:09.455Z,97678.34
2022-12-11T21:42:36.022Z,97675.38
2022-12-11T21:47:50.100Z,97681.38
2022-12-11T21:50:16.988Z,97684.63
2022-12-11T21:52:43.591Z,97677.03
2022-12-11T21:55:11.944Z,97681.94
2022-12-11T21:57:38.561Z,97675.94
2022-12-11T22:00:05.673Z,97676.22
2022-12-11T22:02:41.038Z,97680.81
2022-12-11T22:05:08.512Z,97685.16
2022-12-11T22:07:34.991Z,97687.88
2022-12-11T22:10:01.731Z,97691.09
2022-12-11T22:12:28.675Z,97698.97
2022-12-11T22:14:56.342Z,97694.84
2022-12-11T22:17:23.055Z,97711.47
2022-12-11T22:19:51.866Z,97705.44
2022-12-11T22:22:19.197Z,97710.88
2022-12-11T22:24:46.440Z,97723.06
2022-12-11T22:27:13.128Z,97728.78
2022-12-11T22:29:39.728Z,97728.19
2022-12-11T22:32:06.286Z,97730.09
2022-12-11T22:34:32.881Z,97731.41
2022-12-11T22:36:59.702Z,97730.03
2022-12-11T22:39:26.200Z,97733.28
2022-12-11T22:41:52.732Z,97731.09
2022-12-11T22:44:20.600Z,97738.69
2022-12-11T22:46:50.241Z,97735.63
2022-12-11T22:49:18.757Z,97744.94
2022-12-11T22:51:45.376Z,97757.72
2022-12-11T22:54:12.012Z,97755.75
2022-12-11T22:56:38.719Z,97752.22
2022-12-11T22:59:05.360Z,97749.78
2022-12-11T23:01:31.920Z,97755.72
2022-12-11T23:03:58.471Z,97758.09
2022-12-11T23:06:25.149Z,97756.47
2022-12-11T23:08:52.848Z,97760.28
2022-12-11T23:11:23.988Z,97765.16
2022-12-11T23:13:50.674Z,97756.72
2022-12-11T23:16:17.209Z,97762.16
2022-12-11T23:18:43.800Z,97766.47
2022-12-11T23:21:10.719Z,97764.81
2022-12-11T23:23:37.373Z,97754.47
2022-12-11T23:26:05.762Z,97756.38
2022-12-11T23:28:32.147Z,97747.66
2022-12-11T23:30:58.681Z,97749.53
2022-12-11T23:33:25.861Z,97747.09
2022-12-11T23:35:52.388Z,97754.69
2022-12-11T23:38:19.936Z,97749.53
2022-12-11T23:40:46.461Z,97763.38
2022-12-11T23:43:13.023Z,97754.66
2022-12-11T23:45:39.570Z,97758.69
2022-12-11T23:48:06.117Z,97763.31
2022-12-11T23:50:32.974Z,97768.19
2022-12-11T23:52:59.528Z,97768.72
2022-12-11T23:55:27.384Z,97767.38
2022-12-11T23:57:54.023Z,97766.00
